Terminal Aerodrome Forecast
Issued by NWS North Platte, NE

Home | Current Version | Previous Version | Text Only | Print | Product List | Glossary On
Versions: 1 2 3 4 5 6 7 8 9 10 11 12 13 14 15 16 17 18 19 20 21
782
FTUS43 KLBF 251307 AAB
TAFLBF
TAF AMD
KLBF 251307Z 2513/2612 34010KT P6SM -SHRA SCT008 BKN040 OVC050
      TEMPO 2513/2514 2SM -SHRA BKN008
     FM251600 01014G19KT P6SM VCSH OVC025
     FM252000 01015G23KT P6SM OVC025=

USA.gov is the U.S. government's official web portal to all federal, state and local government web resources and services.